Hartsel, CO (80449)

10:49 AM MDT on May 22, 2015 (GMT -0600)
KCOHARTS5 | | Change Station
CLOSE
Current Station
Personal Weather Station
Location: Hartsell, CO
Elevation: 9970 ft
Nearby Weather Stations

Elev 9970 ft 38.78 °N, 105.73 °W | Updated 1 minute ago

Mostly Cloudy
Mostly Cloudy
41.6 °F
Feels Like 38 °F
N
5.0
Wind Variable Wind from WNW
Gusts 13.0 mph

Today
High -- | Low -- °F
--% Chance of Precip.
Yesterday
High -- | Low -- °F
Precip. -- in
5:45 AM 8:14 PM
Waxing Crescent, 22% visible
Pressure 30.06 in
Visibility 10.0 miles
Clouds Scattered Clouds 6000 ft
Mostly Cloudy 7000 ft
Windchill 38 °F
Dew Point 34 °F
Humidity 75%
Rainfall 0.08 in
Snow Depth Not available.
UV 4.6 out of 12
Pollen 4.90 out of 12
Air Quality Not available.
Flu Activity Sporadic
METAR KAEJ 221635Z AUTO 11006KT 10SM SCT060 BKN070 10/04 A3006 RMK AO2 T01020040

More Conditions Fewer Conditions

Pressure 30.06 in
Visibility 10.0 miles
Clouds Scattered Clouds 6000 ft
Mostly Cloudy 7000 ft
Windchill 38 °F
Dew Point 34 °F
Humidity 75%
Rainfall 0.08 in
Snow Depth Not available.
UV 4.6 out of 12
Pollen 4.90 out of 12
Air Quality Not available.
Flu Activity Sporadic
METAR KAEJ 221635Z AUTO 11006KT 10SM SCT060 BKN070 10/04 A3006 RMK AO2 T01020040

More Conditions Fewer Conditions

10-Day Weather Forecast

Almanac

Astronomy

May. 22, 2015 Rise Set
Actual Time
Civil Twilight
Nautical Twilight
Astronomical Twilight
Moon
Length of Visible Light
Length of Day
Tomorrow will be .
, % of the Moon is Illuminated

Today's Extremes

State Highs State Lows

Community

WunderPhotos

Upload Photos

1,823,263 photos uploaded!

WunderBlogs® & News

Nearby

Air Quality

  Air Quality AQ Index Pollutant
Not available.

Snow Depth

Station Depth Elevation

Earthquake Activity

City Distance Mag. Time & Date
Minimum magnitude displayed is 2.5.

Coastal Water Temperatures

Place Temperature

Stations

Nearby Weather Stations

Station Location Temp. Windchill Dew Point Humidity Wind Precip. Elev Updated Type